createdAt,value
2022-10-11T00:02:26.469Z,11.60
2022-10-11T00:04:54.519Z,11.70
2022-10-11T00:07:22.582Z,11.70
2022-10-11T00:09:50.501Z,11.70
2022-10-11T00:12:18.388Z,11.70
2022-10-11T00:14:46.249Z,11.70
2022-10-11T00:17:14.478Z,11.60
2022-10-11T00:19:43.704Z,11.60
2022-10-11T00:22:11.610Z,11.50
2022-10-11T00:24:39.501Z,11.60
2022-10-11T00:27:07.438Z,11.70
2022-10-11T00:29:35.321Z,11.70
2022-10-11T00:32:03.241Z,11.70
2022-10-11T00:34:31.165Z,11.70
2022-10-11T00:37:00.360Z,11.70
2022-10-11T00:39:28.415Z,11.70
2022-10-11T00:41:56.624Z,11.70
2022-10-11T00:44:26.863Z,11.70
2022-10-11T00:46:58.868Z,11.60
2022-10-11T00:49:34.431Z,11.60
2022-10-11T00:52:07.761Z,11.60
2022-10-11T00:54:38.257Z,11.60
2022-10-11T00:57:10.363Z,11.60
2022-10-11T00:59:42.530Z,11.60
2022-10-11T01:02:12.251Z,11.60
2022-10-11T01:04:41.000Z,11.60
2022-10-11T01:07:10.718Z,11.70
2022-10-11T01:09:38.849Z,11.70
2022-10-11T01:12:14.489Z,11.70
2022-10-11T01:15:06.118Z,11.60
2022-10-11T01:17:41.643Z,11.60
2022-10-11T01:20:39.406Z,11.50
2022-10-11T01:23:34.313Z,11.50
2022-10-11T01:26:35.471Z,11.40
2022-10-11T01:29:13.465Z,11.40
2022-10-11T01:31:50.380Z,11.40
2022-10-11T01:34:28.133Z,11.40
2022-10-11T01:37:03.970Z,11.40
2022-10-11T01:39:36.474Z,11.40
2022-10-11T01:42:07.514Z,11.30
2022-10-11T01:44:37.381Z,11.30
2022-10-11T01:47:06.827Z,11.30
2022-10-11T01:49:34.893Z,11.20
2022-10-11T01:52:07.163Z,11.30
2022-10-11T01:55:08.628Z,11.30
2022-10-11T01:57:48.500Z,11.20
2022-10-11T02:00:18.738Z,11.20
2022-10-11T02:03:04.412Z,11.10
2022-10-11T02:05:40.075Z,11.10
2022-10-11T02:08:11.933Z,11.00
2022-10-11T02:10:43.744Z,11.00
2022-10-11T02:13:19.445Z,11.00
2022-10-11T02:15:50.096Z,11.00
2022-10-11T02:18:22.893Z,11.10
2022-10-11T02:20:52.320Z,11.10
2022-10-11T02:23:26.452Z,11.20
2022-10-11T02:25:55.960Z,11.20
2022-10-11T02:28:26.821Z,11.30
2022-10-11T02:30:55.389Z,11.30
2022-10-11T02:33:31.960Z,11.40
2022-10-11T02:36:05.043Z,11.40
2022-10-11T02:38:38.333Z,11.50
2022-10-11T02:41:13.580Z,11.50
2022-10-11T02:43:46.404Z,11.50
2022-10-11T02:46:17.571Z,11.60
2022-10-11T02:48:46.836Z,11.60
2022-10-11T02:51:15.666Z,11.60
2022-10-11T02:53:43.421Z,11.60
2022-10-11T02:56:11.270Z,11.60
2022-10-11T02:58:39.088Z,11.60
2022-10-11T03:01:07.120Z,11.60
2022-10-11T03:03:34.862Z,11.60
2022-10-11T03:06:06.097Z,11.60
2022-10-11T03:08:34.364Z,11.60
2022-10-11T03:11:02.356Z,11.60
2022-10-11T03:13:30.132Z,11.60
2022-10-11T03:16:03.186Z,11.60
2022-10-11T03:18:31.645Z,11.60
2022-10-11T03:20:59.416Z,11.50
2022-10-11T03:23:28.559Z,11.50
2022-10-11T03:25:56.425Z,11.30
2022-10-11T03:28:24.172Z,11.30
2022-10-11T03:30:52.464Z,11.20
2022-10-11T03:33:20.608Z,11.20
2022-10-11T03:35:49.852Z,11.10
2022-10-11T03:38:21.770Z,11.10
2022-10-11T03:40:51.092Z,11.10
2022-10-11T03:43:18.892Z,11.20
2022-10-11T03:45:46.709Z,11.20
2022-10-11T03:48:14.473Z,11.30
2022-10-11T03:50:42.236Z,11.30
2022-10-11T03:53:10.316Z,11.40
2022-10-11T03:55:40.131Z,11.60
2022-10-11T03:58:09.568Z,11.50
2022-10-11T04:00:37.731Z,11.60
2022-10-11T04:03:05.708Z,11.60
2022-10-11T04:05:33.486Z,11.70
2022-10-11T04:08:01.270Z,11.70
2022-10-11T04:10:30.907Z,11.70
2022-10-11T04:12:59.051Z,11.80
2022-10-11T04:15:28.185Z,11.80
2022-10-11T04:17:55.923Z,11.80
2022-10-11T04:20:23.826Z,11.90
2022-10-11T04:22:51.661Z,11.90
2022-10-11T04:25:19.428Z,11.90
2022-10-11T04:27:47.163Z,11.90
2022-10-11T04:30:16.264Z,11.90
2022-10-11T04:32:45.992Z,11.90
2022-10-11T04:35:13.813Z,12.00
2022-10-11T04:37:41.568Z,12.00
2022-10-11T04:40:10.804Z,12.00
2022-10-11T04:42:38.589Z,12.00
2022-10-11T04:45:07.518Z,12.00
2022-10-11T04:47:35.273Z,12.00
2022-10-11T04:50:04.615Z,12.00
2022-10-11T04:52:32.389Z,12.00
2022-10-11T04:55:00.148Z,11.90
2022-10-11T04:57:27.917Z,11.90
2022-10-11T04:59:55.669Z,11.90
2022-10-11T05:02:23.493Z,11.90
2022-10-11T05:04:51.300Z,11.80
2022-10-11T05:07:20.407Z,11.90
2022-10-11T05:09:48.133Z,11.80
2022-10-11T05:12:15.921Z,11.80
2022-10-11T05:14:43.641Z,11.80
2022-10-11T05:17:11.362Z,11.80
2022-10-11T05:19:39.130Z,11.80
2022-10-11T05:22:06.853Z,11.80
2022-10-11T05:24:36.084Z,11.70
2022-10-11T05:27:03.850Z,11.70
2022-10-11T05:29:31.797Z,11.70
2022-10-11T05:31:59.563Z,11.80
2022-10-11T05:34:27.389Z,11.80
2022-10-11T05:36:56.328Z,11.80
2022-10-11T05:39:24.349Z,11.80
2022-10-11T05:41:53.505Z,11.90
2022-10-11T05:44:21.289Z,11.90
2022-10-11T05:46:49.040Z,11.90
2022-10-11T05:49:16.793Z,11.90
2022-10-11T05:51:44.671Z,11.90
2022-10-11T05:54:12.460Z,11.90
2022-10-11T05:56:40.224Z,11.90
2022-10-11T05:59:09.361Z,11.90
2022-10-11T06:01:37.205Z,12.00
2022-10-11T06:04:05.336Z,12.00
2022-10-11T06:06:33.121Z,12.00
2022-10-11T06:09:00.978Z,12.00
2022-10-11T06:11:29.161Z,12.00
2022-10-11T06:13:58.876Z,12.00
2022-10-11T06:16:28.045Z,12.00
2022-10-11T06:18:56.413Z,12.10
2022-10-11T06:21:24.823Z,12.20
2022-10-11T06:23:58.368Z,12.20
2022-10-11T06:26:29.130Z,12.20
2022-10-11T06:28:56.972Z,12.20
2022-10-11T06:31:24.826Z,12.20
2022-10-11T06:33:53.908Z,12.30
2022-10-11T06:36:21.680Z,12.40
2022-10-11T06:38:52.609Z,12.40
2022-10-11T06:41:23.849Z,12.50
2022-10-11T06:43:51.820Z,12.50
2022-10-11T06:46:20.812Z,12.50
2022-10-11T06:48:49.677Z,12.60
2022-10-11T06:51:20.775Z,12.60
2022-10-11T06:53:51.515Z,12.60
2022-10-11T06:56:19.977Z,12.70
2022-10-11T06:58:48.128Z,12.90
2022-10-11T07:01:18.989Z,13.00
2022-10-11T07:03:47.124Z,13.10
2022-10-11T07:06:17.010Z,13.20
2022-10-11T07:08:46.369Z,13.20
2022-10-11T07:11:16.298Z,13.20
2022-10-11T07:13:44.202Z,13.20
2022-10-11T07:16:13.792Z,13.30
2022-10-11T07:18:41.564Z,13.20
2022-10-11T07:21:11.801Z,13.20
2022-10-11T07:23:39.877Z,13.30
2022-10-11T07:26:10.347Z,13.40
2022-10-11T07:28:38.974Z,13.40
2022-10-11T07:31:08.485Z,13.50
2022-10-11T07:33:36.341Z,13.60
2022-10-11T07:36:05.231Z,13.60
2022-10-11T07:38:33.323Z,13.70
2022-10-11T07:41:06.077Z,13.70
2022-10-11T07:43:35.344Z,13.80
2022-10-11T07:46:04.725Z,13.90
2022-10-11T07:48:36.997Z,13.90
2022-10-11T07:51:06.592Z,13.90
2022-10-11T07:53:39.413Z,13.90
2022-10-11T07:56:08.555Z,13.90
2022-10-11T07:58:37.865Z,14.00
2022-10-11T08:01:05.917Z,14.00
2022-10-11T08:03:33.854Z,14.00
2022-10-11T08:06:03.384Z,14.00
2022-10-11T08:08:32.013Z,14.00
2022-10-11T08:11:00.432Z,14.10
2022-10-11T08:13:28.522Z,14.00
2022-10-11T08:15:57.732Z,14.10
2022-10-11T08:18:26.018Z,14.10
2022-10-11T08:20:53.892Z,14.10
2022-10-11T08:23:21.675Z,14.20
2022-10-11T08:25:49.871Z,14.20
2022-10-11T08:28:18.091Z,14.30
2022-10-11T08:30:49.846Z,14.30
2022-10-11T08:33:19.734Z,14.40
2022-10-11T08:35:48.136Z,14.40
2022-10-11T08:38:16.096Z,14.60
2022-10-11T08:40:47.993Z,14.70
2022-10-11T08:43:28.884Z,14.80
2022-10-11T08:45:59.457Z,15.10
2022-10-11T08:48:36.017Z,16.50
2022-10-11T08:51:09.530Z,17.40
2022-10-11T08:53:46.796Z,18.80
2022-10-11T08:56:15.970Z,20.90
2022-10-11T08:58:48.835Z,22.00
2022-10-11T09:01:21.652Z,22.30
2022-10-11T09:03:51.513Z,21.60
2022-10-11T09:06:27.953Z,20.60
2022-10-11T09:09:09.268Z,19.80
2022-10-11T09:11:47.254Z,19.20
2022-10-11T09:14:33.128Z,18.80
2022-10-11T09:17:08.401Z,19.30
2022-10-11T09:19:51.810Z,19.30
2022-10-11T09:22:30.614Z,18.80
2022-10-11T09:25:12.468Z,18.30
2022-10-11T09:28:01.895Z,17.90
2022-10-11T09:30:30.483Z,17.60
2022-10-11T09:33:05.457Z,17.40
2022-10-11T09:35:40.229Z,17.40
2022-10-11T09:38:17.209Z,17.50
2022-10-11T09:40:55.626Z,17.60
2022-10-11T09:43:23.404Z,17.50
2022-10-11T09:45:51.545Z,17.50
2022-10-11T09:48:22.666Z,17.30
2022-10-11T09:50:53.212Z,17.20
2022-10-11T09:53:21.857Z,17.20
2022-10-11T09:55:53.578Z,17.40
2022-10-11T09:58:29.924Z,17.70
2022-10-11T10:01:02.800Z,17.80
2022-10-11T10:03:36.756Z,19.20
2022-10-11T10:06:13.766Z,20.50
2022-10-11T10:08:42.877Z,20.50
2022-10-11T10:11:12.265Z,20.10
2022-10-11T10:13:46.135Z,20.30
2022-10-11T10:16:23.081Z,21.60
2022-10-11T10:18:54.021Z,22.40
2022-10-11T10:21:29.412Z,22.50
2022-10-11T10:23:59.956Z,22.50
2022-10-11T10:26:28.427Z,22.50
2022-10-11T10:28:59.575Z,23.30
2022-10-11T10:31:49.189Z,23.90
2022-10-11T10:34:26.692Z,23.70
2022-10-11T10:36:59.004Z,23.60
2022-10-11T10:39:33.641Z,24.30
2022-10-11T10:42:04.406Z,24.10
2022-10-11T10:44:32.432Z,23.20
2022-10-11T10:47:08.998Z,22.30
2022-10-11T10:49:59.314Z,21.30
2022-10-11T10:52:47.273Z,20.60
2022-10-11T10:55:24.311Z,19.90
2022-10-11T10:58:05.096Z,19.50
2022-10-11T11:00:42.429Z,19.20
2022-10-11T11:03:17.056Z,19.00
2022-10-11T11:05:52.456Z,18.90
2022-10-11T11:08:36.868Z,18.80
2022-10-11T11:11:15.436Z,18.80
2022-10-11T11:13:50.985Z,18.70
2022-10-11T11:16:28.898Z,18.60
2022-10-11T11:19:04.357Z,18.50
2022-10-11T11:21:42.117Z,18.30
2022-10-11T11:24:20.709Z,18.20
2022-10-11T11:26:54.058Z,18.00
2022-10-11T11:29:37.415Z,17.90
2022-10-11T11:32:13.373Z,17.70
2022-10-11T11:34:46.408Z,17.60
2022-10-11T11:37:24.373Z,17.50
2022-10-11T11:39:58.199Z,17.50
2022-10-11T11:42:31.593Z,17.50
2022-10-11T11:45:06.237Z,17.60
2022-10-11T11:47:38.535Z,17.80
2022-10-11T11:50:22.200Z,17.90
2022-10-11T11:52:53.457Z,18.50
2022-10-11T11:55:27.796Z,19.00
2022-10-11T11:58:06.933Z,19.50
2022-10-11T12:00:42.187Z,20.80
2022-10-11T12:03:16.093Z,21.20
2022-10-11T12:06:24.709Z,21.10
2022-10-11T12:09:03.318Z,21.70
2022-10-11T12:11:46.992Z,23.20
2022-10-11T12:14:29.189Z,24.90
2022-10-11T12:17:18.734Z,26.10
2022-10-11T12:20:10.852Z,26.10
2022-10-11T12:22:56.045Z,26.80
2022-10-11T12:25:44.119Z,27.70
2022-10-11T12:29:00.733Z,28.40
2022-10-11T12:31:32.284Z,28.10
2022-10-11T12:34:33.276Z,26.60
2022-10-11T12:37:04.580Z,25.20
2022-10-11T12:39:53.512Z,24.70
2022-10-11T12:42:28.045Z,25.00
2022-10-11T12:45:32.380Z,24.60
2022-10-11T12:48:18.356Z,24.10
2022-10-11T12:50:54.088Z,24.10
2022-10-11T12:53:34.668Z,23.50
2022-10-11T12:56:07.020Z,23.00
2022-10-11T12:58:41.551Z,22.40
2022-10-11T13:01:21.908Z,21.70
2022-10-11T13:04:00.980Z,21.10
2022-10-11T13:06:30.690Z,20.60
2022-10-11T13:09:04.837Z,20.20
2022-10-11T13:11:35.699Z,20.00
2022-10-11T13:14:09.461Z,20.00
2022-10-11T13:16:49.352Z,20.30
2022-10-11T13:19:23.082Z,20.50
2022-10-11T13:21:54.257Z,20.40
2022-10-11T13:24:24.021Z,20.20
2022-10-11T13:26:55.048Z,19.90
2022-10-11T13:29:33.513Z,19.70
2022-10-11T13:32:04.173Z,19.40
2022-10-11T13:34:37.831Z,19.20
2022-10-11T13:37:06.990Z,18.90
2022-10-11T13:39:37.221Z,18.70
2022-10-11T13:42:09.641Z,18.50
2022-10-11T13:44:39.369Z,18.30
2022-10-11T13:47:07.558Z,18.20
2022-10-11T13:49:39.672Z,18.10
2022-10-11T13:52:21.833Z,18.20
2022-10-11T13:55:11.268Z,18.30
2022-10-11T13:57:41.922Z,18.40
2022-10-11T14:00:21.669Z,18.50
2022-10-11T14:02:52.449Z,18.60
2022-10-11T14:05:27.466Z,18.60
2022-10-11T14:07:55.316Z,18.60
2022-10-11T14:10:23.917Z,18.60
2022-10-11T14:13:04.124Z,18.60
2022-10-11T14:15:34.477Z,18.50
2022-10-11T14:18:23.462Z,18.40
2022-10-11T14:20:53.112Z,18.30
2022-10-11T14:23:20.897Z,18.10
2022-10-11T14:25:48.668Z,18.10
2022-10-11T14:28:16.849Z,18.00
2022-10-11T14:30:44.666Z,17.90
2022-10-11T14:33:12.725Z,17.80
2022-10-11T14:35:43.130Z,17.70
2022-10-11T14:38:12.913Z,17.70
2022-10-11T14:40:40.668Z,18.30
2022-10-11T14:43:08.384Z,17.40
2022-10-11T14:45:36.144Z,17.30
2022-10-11T14:48:04.202Z,17.20
2022-10-11T14:50:39.067Z,17.20
2022-10-11T14:53:08.360Z,17.10
2022-10-11T14:55:39.169Z,17.10
2022-10-11T14:58:07.369Z,17.10
2022-10-11T15:00:35.361Z,17.10
2022-10-11T15:03:03.613Z,17.10
2022-10-11T15:05:34.104Z,16.90
2022-10-11T15:08:02.405Z,16.90
2022-10-11T15:10:34.498Z,16.90
2022-10-11T15:13:05.113Z,16.80
2022-10-11T15:15:36.016Z,16.70
2022-10-11T15:18:05.840Z,16.70
2022-10-11T15:20:36.073Z,16.60
2022-10-11T15:23:04.860Z,16.60
2022-10-11T15:25:32.833Z,16.60
2022-10-11T15:28:00.580Z,16.50
2022-10-11T15:30:31.490Z,16.50
2022-10-11T15:33:00.057Z,16.40
2022-10-11T15:35:29.490Z,16.40
2022-10-11T15:37:59.865Z,16.30
2022-10-11T15:40:31.379Z,16.30
2022-10-11T15:42:59.192Z,16.20
2022-10-11T15:45:28.996Z,16.20
2022-10-11T15:47:57.449Z,16.20
2022-10-11T15:50:37.217Z,16.10
2022-10-11T15:53:06.241Z,16.10
2022-10-11T15:55:35.777Z,16.00
2022-10-11T15:58:03.529Z,16.00
2022-10-11T16:00:32.743Z,15.90
2022-10-11T16:03:00.896Z,15.90
2022-10-11T16:05:29.228Z,15.90
2022-10-11T16:07:57.056Z,15.90
2022-10-11T16:10:24.804Z,15.80
2022-10-11T16:12:52.690Z,15.80
2022-10-11T16:15:20.517Z,15.70
2022-10-11T16:17:50.086Z,15.70
2022-10-11T16:20:21.885Z,15.60
2022-10-11T16:22:50.172Z,15.60
2022-10-11T16:25:18.512Z,15.60
2022-10-11T16:27:47.190Z,15.50
2022-10-11T16:30:16.301Z,15.50
2022-10-11T16:32:44.349Z,15.40
2022-10-11T16:35:14.848Z,15.30
2022-10-11T16:37:43.174Z,15.20
2022-10-11T16:40:15.677Z,15.20
2022-10-11T16:42:43.441Z,15.10
2022-10-11T16:45:11.781Z,15.00
2022-10-11T16:47:39.830Z,14.90
2022-10-11T16:50:08.889Z,14.80
2022-10-11T16:52:38.081Z,14.70
2022-10-11T16:55:06.754Z,14.60
2022-10-11T16:57:34.526Z,14.50
2022-10-11T17:00:02.417Z,14.50
2022-10-11T17:02:32.554Z,14.40
2022-10-11T17:05:00.752Z,14.30
2022-10-11T17:07:29.157Z,14.20
2022-10-11T17:09:59.429Z,14.10
2022-10-11T17:12:27.276Z,14.00
2022-10-11T17:14:55.303Z,13.90
2022-10-11T17:17:23.115Z,13.80
2022-10-11T17:19:51.263Z,13.80
2022-10-11T17:22:20.952Z,13.80
2022-10-11T17:24:48.704Z,13.80
2022-10-11T17:27:17.813Z,13.70
2022-10-11T17:29:45.536Z,13.70
2022-10-11T17:32:13.288Z,13.70
2022-10-11T17:34:41.067Z,13.60
2022-10-11T17:37:09.947Z,13.50
2022-10-11T17:39:37.785Z,13.50
2022-10-11T17:42:07.513Z,13.40
2022-10-11T17:44:37.449Z,13.30
2022-10-11T17:47:05.401Z,13.30
2022-10-11T17:49:33.196Z,13.30
2022-10-11T17:52:00.972Z,13.30
2022-10-11T17:54:28.758Z,13.30
2022-10-11T17:56:56.533Z,13.20
2022-10-11T17:59:27.343Z,13.20
2022-10-11T18:01:56.469Z,13.30
2022-10-11T18:04:29.251Z,13.30
2022-10-11T18:06:57.188Z,13.40
2022-10-11T18:09:25.141Z,13.30
2022-10-11T18:11:53.092Z,13.30
2022-10-11T18:14:21.105Z,13.40
2022-10-11T18:16:48.891Z,13.40
2022-10-11T18:19:17.966Z,13.40
2022-10-11T18:21:45.763Z,13.30
2022-10-11T18:24:15.876Z,13.40
2022-10-11T18:26:44.486Z,13.30
2022-10-11T18:29:13.100Z,13.30
2022-10-11T18:31:41.159Z,13.30
2022-10-11T18:34:10.612Z,13.30
2022-10-11T18:36:40.107Z,13.30
2022-10-11T18:39:09.878Z,13.20
2022-10-11T18:41:40.204Z,13.30
2022-10-11T18:44:09.420Z,13.20
2022-10-11T18:46:37.653Z,13.20
2022-10-11T18:49:05.522Z,13.20
2022-10-11T18:51:34.757Z,13.20
2022-10-11T18:54:04.587Z,13.20
2022-10-11T18:56:34.414Z,13.20
2022-10-11T18:59:02.560Z,13.20
2022-10-11T19:01:32.357Z,13.10
2022-10-11T19:04:01.992Z,13.20
2022-10-11T19:06:32.096Z,13.10
2022-10-11T19:09:03.993Z,13.10
2022-10-11T19:11:32.600Z,13.00
2022-10-11T19:14:02.153Z,13.00
2022-10-11T19:16:31.457Z,13.00
2022-10-11T19:18:59.456Z,12.90
2022-10-11T19:21:27.875Z,12.90
2022-10-11T19:23:57.578Z,12.90
2022-10-11T19:26:29.957Z,12.90
2022-10-11T19:28:59.908Z,12.90
2022-10-11T19:31:27.956Z,12.80
2022-10-11T19:33:57.799Z,12.80
2022-10-11T19:36:25.904Z,12.80
2022-10-11T19:38:56.433Z,12.80
2022-10-11T19:41:27.274Z,12.80
2022-10-11T19:43:58.261Z,12.70
2022-10-11T19:46:49.801Z,12.70
2022-10-11T19:49:17.366Z,12.60
2022-10-11T19:51:45.153Z,12.50
2022-10-11T19:54:14.648Z,12.50
2022-10-11T19:56:44.454Z,12.40
2022-10-11T19:59:13.179Z,12.40
2022-10-11T20:01:41.446Z,12.30
2022-10-11T20:04:27.431Z,12.30
2022-10-11T20:06:59.341Z,12.20
2022-10-11T20:09:29.936Z,12.20
2022-10-11T20:11:59.830Z,12.20
2022-10-11T20:14:27.591Z,12.20
2022-10-11T20:16:55.392Z,12.10
2022-10-11T20:19:27.867Z,12.10
2022-10-11T20:21:58.341Z,12.00
2022-10-11T20:24:27.299Z,12.00
2022-10-11T20:26:55.255Z,12.00
2022-10-11T20:29:25.588Z,12.00
2022-10-11T20:31:53.377Z,12.00
2022-10-11T20:34:21.120Z,12.00
2022-10-11T20:36:49.485Z,12.00
2022-10-11T20:39:17.761Z,11.90
2022-10-11T20:41:46.089Z,11.90
2022-10-11T20:44:15.935Z,11.90
2022-10-11T20:46:45.038Z,11.80
2022-10-11T20:49:13.467Z,11.80
2022-10-11T20:51:42.507Z,11.80
2022-10-11T20:54:10.788Z,11.70
2022-10-11T20:56:39.696Z,11.70
2022-10-11T20:59:08.485Z,11.70
2022-10-11T21:01:37.961Z,11.70
2022-10-11T21:04:09.356Z,11.70
2022-10-11T21:06:37.105Z,11.70
2022-10-11T21:09:05.031Z,11.60
2022-10-11T21:11:34.968Z,11.60
2022-10-11T21:14:04.435Z,11.60
2022-10-11T21:16:33.000Z,11.50
2022-10-11T21:19:02.102Z,11.50
2022-10-11T21:21:31.768Z,11.50
2022-10-11T21:24:00.722Z,11.50
2022-10-11T21:26:29.371Z,11.50
2022-10-11T21:28:58.988Z,11.60
2022-10-11T21:31:31.278Z,11.70
2022-10-11T21:34:01.826Z,11.70
2022-10-11T21:36:30.915Z,11.70
2022-10-11T21:38:58.689Z,11.70
2022-10-11T21:41:28.954Z,11.70
2022-10-11T21:43:57.076Z,11.80
2022-10-11T21:46:41.742Z,11.80
2022-10-11T21:49:13.903Z,11.80
2022-10-11T21:51:43.172Z,11.80
2022-10-11T21:54:11.193Z,11.80
2022-10-11T21:56:38.942Z,11.80
2022-10-11T21:59:09.559Z,11.80
2022-10-11T22:01:40.341Z,11.70
2022-10-11T22:04:08.904Z,11.70
2022-10-11T22:06:37.549Z,11.70
2022-10-11T22:09:08.129Z,11.70
2022-10-11T22:11:36.161Z,11.70
2022-10-11T22:14:03.949Z,11.70
2022-10-11T22:16:33.293Z,11.70
2022-10-11T22:19:01.021Z,11.70
2022-10-11T22:21:28.850Z,11.60
2022-10-11T22:23:56.631Z,11.70
2022-10-11T22:26:27.581Z,11.70
2022-10-11T22:28:55.408Z,11.70
2022-10-11T22:31:24.377Z,11.70
2022-10-11T22:33:55.531Z,11.70
2022-10-11T22:36:24.774Z,11.70
2022-10-11T22:38:53.702Z,11.70
2022-10-11T22:41:21.464Z,11.70
2022-10-11T22:43:50.840Z,11.60
2022-10-11T22:46:18.608Z,11.60
2022-10-11T22:48:46.350Z,11.50
2022-10-11T22:51:14.431Z,11.50
2022-10-11T22:53:42.269Z,11.40
2022-10-11T22:56:11.065Z,11.40
2022-10-11T22:58:38.981Z,11.30
2022-10-11T23:01:12.897Z,11.30
2022-10-11T23:03:40.728Z,11.30
2022-10-11T23:06:09.429Z,11.20
2022-10-11T23:08:37.280Z,11.30
2022-10-11T23:11:06.411Z,11.20
2022-10-11T23:13:34.556Z,11.20
2022-10-11T23:16:07.233Z,11.20
2022-10-11T23:18:36.503Z,11.20
2022-10-11T23:21:05.396Z,11.20
2022-10-11T23:23:33.190Z,11.30
2022-10-11T23:26:02.440Z,11.20
2022-10-11T23:28:30.264Z,11.30
2022-10-11T23:30:58.264Z,11.30
2022-10-11T23:33:26.445Z,11.30
2022-10-11T23:35:55.565Z,11.30
2022-10-11T23:38:23.367Z,11.30
2022-10-11T23:40:51.121Z,11.20
2022-10-11T23:43:18.893Z,11.20
2022-10-11T23:45:46.620Z,11.20
2022-10-11T23:48:14.389Z,11.10
2022-10-11T23:50:42.873Z,11.10
2022-10-11T23:53:13.253Z,11.00
2022-10-11T23:55:41.275Z,10.70
2022-10-11T23:58:09.053Z,11.00
